Aérodrome :
LOGIN :

S'inscrire | Disclaimer

   EN    FR    IT 

 










Légende :    VFR   VFR Marginal   IFR   IFR Intensif   IFR Très Intensif
Visi : 
Plafond : 
>= 8 km
>= 3000ft
5 à 8 km
1000 à 3000 ft
1500m à 5 km
500 à 1000 ft
800 à 1500m
200 à 500 ft
< 800m
< 200 ft
Symboles :   Orages  Brouillard  Fortes neiges  Fortes précipitations  Vent > 20 kt
SIGMETs :   Divers  Orages  Givrage  Turbulence  Onde Orograph.  Cendres Volcan.







- Altitude de l'aérodrome : 233 ft
- Code IATA : REU


LERS - Reus Tarragona

DERNIER METAR :
  • 200330Z AUTO 01003KT 9000 NSC 08/07 Q1012

METARs EXPIRÉS :
  • 200300Z AUTO 00000KT CAVOK 09/08 Q1012
  • 200230Z AUTO 01003KT 340V040 CAVOK 10/08 Q1013
  • 200200Z AUTO 02003KT CAVOK 11/08 Q1013
  • 200130Z AUTO 01005KT CAVOK 11/08 Q1013
  • 200100Z AUTO 36006KT CAVOK 11/08 Q1013

TAF TAF LERS
Valide du 20 à 03h jusqu'au 21 à 03h UTC


200200Z 2003/2103 VRB03KT 9999 SCT020 TX19/2013Z TN06/2007Z
PROB30
TEMPO 2003/2008 3000 BR BKN008
TEMPO 2003/2009 29010KT
BECMG 2010/2012 30012KT
TEMPO 2011/2018 30018G30KT
Pas de NOTAMs connus pour ce terrain.
1 SIGMET publié pour la FIR Barcelona (LECB) :
 
Onde orographique forte
LECB SIGMET 1 VALID 200240/200640 LEVA
LECB BARCELONA FIR/UIR SEV MTW OBS AT 0240Z N OF LINE N4157 E00244 - N4153 W00015 SFC/FL300 STNR NC=



MET'MAP, la Météo Aéronautique d'un coup d'oeil ! - Copyright ORBIFLY Décembre 2007 - Disclaimer

ORBIFLY MET'MAP TEAM :

Programmation & Développement : Alexandra Zaïnal
Conception & Développement : Baudouin d'Aumeries
Co-Programmation & Développement : Marc-Olivier Méhu
Soutien technique & logistique : Manuel Goepfert

Contact : metmap@orbifly.com




SOURCES & CREDITS :

   NOAA